createdAt,value
2018-10-19T00:02:20.564Z,1.43
2018-10-19T00:04:49.150Z,2.07
2018-10-19T00:07:17.834Z,1.80
2018-10-19T00:09:46.526Z,1.80
2018-10-19T00:12:15.132Z,1.80
2018-10-19T00:14:43.816Z,2.10
2018-10-19T00:17:12.503Z,1.90
2018-10-19T00:19:41.103Z,2.20
2018-10-19T00:22:09.704Z,1.90
2018-10-19T00:24:38.551Z,1.70
2018-10-19T00:27:07.270Z,2.40
2018-10-19T00:29:35.864Z,2.20
2018-10-19T00:32:04.533Z,1.97
2018-10-19T00:34:33.064Z,1.90
2018-10-19T00:37:01.630Z,2.00
2018-10-19T00:39:30.312Z,1.80
2018-10-19T00:41:58.894Z,2.10
2018-10-19T00:44:27.564Z,2.03
2018-10-19T00:46:56.477Z,1.80
2018-10-19T00:49:25.002Z,1.90
2018-10-19T00:51:53.745Z,1.90
2018-10-19T00:54:22.262Z,2.03
2018-10-19T00:56:50.891Z,1.90
2018-10-19T00:59:19.430Z,2.00
2018-10-19T01:01:48.137Z,2.30
2018-10-19T01:04:16.728Z,1.97
2018-10-19T01:06:45.332Z,2.27
2018-10-19T01:09:13.875Z,2.27
2018-10-19T01:11:45.213Z,2.10
2018-10-19T01:14:13.795Z,2.47
2018-10-19T01:16:42.392Z,2.47
2018-10-19T01:19:10.950Z,2.20
2018-10-19T01:21:39.572Z,2.20
2018-10-19T01:24:08.106Z,2.40
2018-10-19T01:26:36.779Z,2.63
2018-10-19T01:29:05.653Z,2.20
2018-10-19T01:31:34.471Z,2.20
2018-10-19T01:34:03.588Z,2.50
2018-10-19T01:36:37.476Z,2.50
2018-10-19T01:39:07.513Z,2.57
2018-10-19T01:41:35.914Z,2.93
2018-10-19T01:44:04.721Z,2.60
2018-10-19T01:46:33.319Z,2.53
2018-10-19T01:49:01.918Z,2.47
2018-10-19T01:51:31.160Z,2.60
2018-10-19T01:53:59.715Z,2.57
2018-10-19T01:56:28.235Z,2.50
2018-10-19T01:58:56.956Z,2.20
2018-10-19T02:01:25.530Z,2.50
2018-10-19T02:03:54.055Z,2.27
2018-10-19T02:06:22.612Z,2.70
2018-10-19T02:08:51.162Z,2.27
2018-10-19T02:11:19.852Z,2.40
2018-10-19T02:13:48.633Z,2.50
2018-10-19T02:16:17.424Z,2.40
2018-10-19T02:18:46.028Z,2.33
2018-10-19T02:21:14.699Z,2.20
2018-10-19T02:23:43.199Z,2.87
2018-10-19T02:26:11.853Z,2.20
2018-10-19T02:28:40.414Z,2.77
2018-10-19T02:31:09.049Z,2.87
2018-10-19T02:33:45.589Z,2.77
2018-10-19T02:36:14.783Z,2.93
2018-10-19T02:38:44.535Z,3.30
2018-10-19T02:41:14.649Z,2.97
2018-10-19T02:43:43.258Z,2.73
2018-10-19T02:46:11.849Z,2.63
2018-10-19T02:48:40.556Z,2.90
2018-10-19T02:51:15.778Z,2.70
2018-10-19T02:53:44.277Z,2.93
2018-10-19T02:56:12.869Z,2.70
2018-10-19T02:58:41.521Z,3.00
2018-10-19T03:01:10.057Z,2.90
2018-10-19T03:03:38.619Z,2.80
2018-10-19T03:06:07.580Z,2.97
2018-10-19T03:08:36.370Z,3.00
2018-10-19T03:11:05.293Z,3.10
2018-10-19T03:13:34.064Z,3.20
2018-10-19T03:16:05.574Z,3.40
2018-10-19T03:18:34.166Z,3.13
2018-10-19T03:21:03.554Z,3.10
2018-10-19T03:23:32.114Z,3.23
2018-10-19T03:26:00.836Z,3.57
2018-10-19T03:28:29.487Z,3.33
2018-10-19T03:30:58.041Z,3.83
2018-10-19T03:33:26.650Z,3.40
2018-10-19T03:35:55.209Z,3.37
2018-10-19T03:38:23.815Z,3.47
2018-10-19T03:40:52.377Z,3.73
2018-10-19T03:43:20.953Z,3.90
2018-10-19T03:45:49.635Z,3.67
2018-10-19T03:48:18.173Z,4.00
2018-10-19T03:50:46.821Z,3.60
2018-10-19T03:53:15.412Z,3.67
2018-10-19T03:55:43.972Z,3.13
2018-10-19T03:58:12.539Z,3.90
2018-10-19T04:00:41.147Z,3.57
2018-10-19T04:03:09.791Z,3.70
2018-10-19T04:05:38.262Z,3.40
2018-10-19T04:08:06.929Z,3.93
2018-10-19T04:10:35.505Z,3.60
2018-10-19T04:13:04.192Z,3.60
2018-10-19T04:15:32.798Z,3.90
2018-10-19T04:18:01.748Z,3.70
2018-10-19T04:20:30.338Z,3.90
2018-10-19T04:23:03.358Z,3.43
2018-10-19T04:25:31.818Z,3.70
2018-10-19T04:28:00.569Z,3.90
2018-10-19T04:30:29.092Z,3.80
2018-10-19T04:32:57.742Z,4.20
2018-10-19T04:35:26.364Z,3.60
2018-10-19T04:37:54.886Z,3.87
2018-10-19T04:40:24.186Z,3.70
2018-10-19T04:42:52.786Z,3.90
2018-10-19T04:45:21.399Z,4.07
2018-10-19T04:47:50.174Z,4.03
2018-10-19T04:50:18.623Z,3.80
2018-10-19T04:52:47.181Z,3.80
2018-10-19T04:55:19.336Z,3.97
2018-10-19T04:57:47.991Z,3.73
2018-10-19T05:00:23.416Z,3.97
2018-10-19T05:02:52.764Z,3.73
2018-10-19T05:05:21.647Z,3.50
2018-10-19T05:07:50.335Z,3.77
2018-10-19T05:10:19.306Z,3.70
2018-10-19T05:12:47.957Z,3.83
2018-10-19T05:15:16.651Z,3.90
2018-10-19T05:17:45.315Z,3.90
2018-10-19T05:20:14.178Z,3.70
2018-10-19T05:22:42.737Z,4.03
2018-10-19T05:25:12.850Z,3.90
2018-10-19T05:27:41.661Z,3.87
2018-10-19T05:30:12.275Z,3.73
2018-10-19T05:32:41.827Z,3.40
2018-10-19T05:35:10.922Z,3.63
2018-10-19T05:37:40.486Z,3.53
2018-10-19T05:40:10.772Z,3.77
2018-10-19T05:42:39.906Z,4.03
2018-10-19T05:45:10.275Z,4.10
2018-10-19T05:47:38.960Z,4.10
2018-10-19T05:50:08.941Z,3.53
2018-10-19T05:52:38.122Z,3.93
2018-10-19T05:55:07.072Z,3.83
2018-10-19T05:57:35.972Z,3.90
2018-10-19T06:00:05.103Z,4.20
2018-10-19T06:02:33.930Z,3.70
2018-10-19T06:05:03.269Z,3.70
2018-10-19T06:07:31.961Z,3.90
2018-10-19T06:10:00.603Z,3.77
2018-10-19T06:12:29.273Z,3.40
2018-10-19T06:14:57.920Z,3.73
2018-10-19T06:17:26.635Z,4.17
2018-10-19T06:19:55.372Z,4.13
2018-10-19T06:22:24.061Z,3.77
2018-10-19T06:24:52.670Z,4.07
2018-10-19T06:27:21.271Z,3.93
2018-10-19T06:29:49.996Z,4.30
2018-10-19T06:32:18.715Z,4.40
2018-10-19T06:34:47.212Z,3.87
2018-10-19T06:37:16.202Z,3.77
2018-10-19T06:39:44.900Z,4.10
2018-10-19T06:42:13.505Z,4.20
2018-10-19T06:44:42.185Z,4.20
2018-10-19T06:47:11.028Z,4.37
2018-10-19T06:49:39.558Z,4.07
2018-10-19T06:52:08.204Z,4.30
2018-10-19T06:54:36.863Z,4.07
2018-10-19T06:57:05.784Z,4.10
2018-10-19T06:59:34.772Z,4.13
2018-10-19T07:02:04.375Z,3.73
2018-10-19T07:04:32.957Z,4.10
2018-10-19T07:07:02.693Z,4.50
2018-10-19T07:09:31.368Z,4.40
2018-10-19T07:12:00.137Z,4.10
2018-10-19T07:14:28.855Z,4.37
2018-10-19T07:16:57.535Z,4.20
2018-10-19T07:19:26.218Z,3.83
2018-10-19T07:21:54.842Z,4.10
2018-10-19T07:24:23.535Z,4.00
2018-10-19T07:26:52.499Z,4.00
2018-10-19T07:29:21.279Z,3.60
2018-10-19T07:31:50.388Z,3.93
2018-10-19T07:34:19.508Z,4.07
2018-10-19T07:36:48.377Z,3.90
2018-10-19T07:39:17.079Z,3.30
2018-10-19T07:41:45.710Z,3.53
2018-10-19T07:44:14.481Z,3.47
2018-10-19T07:46:43.365Z,3.67
2018-10-19T07:49:12.333Z,3.60
2018-10-19T07:51:42.782Z,3.33
2018-10-19T07:54:11.550Z,3.23
2018-10-19T07:56:43.415Z,3.77
2018-10-19T07:59:12.704Z,3.80
2018-10-19T08:01:42.016Z,3.83
2018-10-19T08:04:10.827Z,3.57
2018-10-19T08:06:39.772Z,3.37
2018-10-19T08:09:10.252Z,4.00
2018-10-19T08:11:39.564Z,3.80
2018-10-19T08:14:08.238Z,3.50
2018-10-19T08:16:36.959Z,3.40
2018-10-19T08:19:05.594Z,3.33
2018-10-19T08:21:34.188Z,3.50
2018-10-19T08:24:04.065Z,3.40
2018-10-19T08:26:33.423Z,3.57
2018-10-19T08:29:02.822Z,3.23
2018-10-19T08:31:31.744Z,2.90
2018-10-19T08:34:00.415Z,3.27
2018-10-19T08:36:29.057Z,3.27
2018-10-19T08:38:57.893Z,3.00
2018-10-19T08:41:26.607Z,3.00
2018-10-19T08:43:55.262Z,3.37
2018-10-19T08:46:29.370Z,3.67
2018-10-19T08:48:58.279Z,3.67
2018-10-19T08:51:26.847Z,3.03
2018-10-19T08:53:55.658Z,3.20
2018-10-19T08:56:24.325Z,2.90
2018-10-19T08:58:53.247Z,3.63
2018-10-19T09:01:22.025Z,3.30
2018-10-19T09:03:51.057Z,3.17
2018-10-19T09:06:19.740Z,3.50
2018-10-19T09:08:48.417Z,3.43
2018-10-19T09:11:18.125Z,3.27
2018-10-19T09:13:46.790Z,3.13
2018-10-19T09:16:15.444Z,3.07
2018-10-19T09:18:44.169Z,3.10
2018-10-19T09:21:13.069Z,3.23
2018-10-19T09:23:41.743Z,3.37
2018-10-19T09:26:10.883Z,3.40
2018-10-19T09:28:39.728Z,3.33
2018-10-19T09:31:08.426Z,3.20
2018-10-19T09:33:38.449Z,2.93
2018-10-19T09:36:07.195Z,3.03
2018-10-19T09:38:35.877Z,2.93
2018-10-19T09:41:05.313Z,3.67
2018-10-19T09:43:34.801Z,3.20
2018-10-19T09:46:04.407Z,3.30
2018-10-19T09:48:33.062Z,3.20
2018-10-19T09:51:02.960Z,3.27
2018-10-19T09:53:31.814Z,3.10
2018-10-19T09:56:00.698Z,3.10
2018-10-19T09:58:30.340Z,2.50
2018-10-19T10:00:59.093Z,2.23
2018-10-19T10:03:28.369Z,2.50
2018-10-19T10:05:57.016Z,2.77
2018-10-19T10:08:25.862Z,2.60
2018-10-19T10:10:54.862Z,2.73
2018-10-19T10:13:25.115Z,2.73
2018-10-19T10:15:54.904Z,3.10
2018-10-19T10:18:23.635Z,2.73
2018-10-19T10:20:52.878Z,2.30
2018-10-19T10:23:22.090Z,2.40
2018-10-19T10:25:51.842Z,2.37
2018-10-19T10:28:20.507Z,2.50
2018-10-19T10:30:49.254Z,2.40
2018-10-19T10:33:18.067Z,2.03
2018-10-19T10:35:46.794Z,1.97
2018-10-19T10:38:15.436Z,1.80
2018-10-19T10:40:44.157Z,2.00
2018-10-19T10:43:13.072Z,2.27
2018-10-19T10:45:42.763Z,2.13
2018-10-19T10:48:12.232Z,1.70
2018-10-19T10:50:40.910Z,2.07
2018-10-19T10:53:09.664Z,1.97
2018-10-19T10:55:38.587Z,1.80
2018-10-19T10:58:07.639Z,2.20
2018-10-19T11:00:36.355Z,1.87
2018-10-19T11:03:05.095Z,1.80
2018-10-19T11:05:33.962Z,1.73
2018-10-19T11:08:03.555Z,1.57
2018-10-19T11:10:32.353Z,2.30
2018-10-19T11:13:01.358Z,1.83
2018-10-19T11:15:30.281Z,1.80
2018-10-19T11:17:59.230Z,1.70
2018-10-19T11:20:28.027Z,1.83
2018-10-19T11:22:56.678Z,1.80
2018-10-19T11:25:26.395Z,2.00
2018-10-19T11:27:55.161Z,1.73
2018-10-19T11:30:23.820Z,1.80
2018-10-19T11:32:52.766Z,1.93
2018-10-19T11:35:21.494Z,1.60
2018-10-19T11:37:50.251Z,1.80
2018-10-19T11:40:26.973Z,1.53
2018-10-19T11:42:56.991Z,1.70
2018-10-19T11:45:27.729Z,1.73
2018-10-19T11:47:56.661Z,1.70
2018-10-19T11:50:25.302Z,1.67
2018-10-19T11:52:53.879Z,2.00
2018-10-19T11:55:22.624Z,1.77
2018-10-19T11:57:52.443Z,1.57
2018-10-19T12:00:21.129Z,1.50
2018-10-19T12:02:49.956Z,1.80
2018-10-19T12:05:18.555Z,1.87
2018-10-19T12:07:47.336Z,1.60
2018-10-19T12:10:16.398Z,1.30
2018-10-19T12:12:45.842Z,1.53
2018-10-19T12:15:16.151Z,1.60
2018-10-19T12:17:45.482Z,1.57
2018-10-19T12:20:16.017Z,1.50
2018-10-19T12:22:44.712Z,1.60
2018-10-19T12:25:14.298Z,1.60
2018-10-19T12:27:42.999Z,1.20
2018-10-19T12:30:13.821Z,1.80
2018-10-19T12:32:43.469Z,1.27
2018-10-19T12:35:13.548Z,1.20
2018-10-19T12:37:42.202Z,1.30
2018-10-19T12:40:12.004Z,1.30
2018-10-19T12:42:40.764Z,1.40
2018-10-19T12:45:20.758Z,1.20
2018-10-19T12:47:49.385Z,1.27
2018-10-19T12:50:18.939Z,1.60
2018-10-19T12:52:48.083Z,1.60
2018-10-19T12:55:16.805Z,1.27
2018-10-19T12:57:45.494Z,1.27
2018-10-19T13:00:17.497Z,1.70
2018-10-19T13:02:47.782Z,1.60
2018-10-19T13:05:16.616Z,1.60
2018-10-19T13:07:45.209Z,1.30
2018-10-19T13:10:13.893Z,1.40
2018-10-19T13:12:42.492Z,1.60
2018-10-19T13:15:11.156Z,1.40
2018-10-19T13:17:40.001Z,1.40
2018-10-19T13:20:08.701Z,1.73
2018-10-19T13:22:37.326Z,1.50
2018-10-19T13:25:06.026Z,1.30
2018-10-19T13:27:34.741Z,1.60
2018-10-19T13:30:03.711Z,1.37
2018-10-19T13:32:32.644Z,1.30
2018-10-19T13:35:01.615Z,1.30
2018-10-19T13:37:30.438Z,1.57
2018-10-19T13:39:59.200Z,1.53
2018-10-19T13:42:27.845Z,1.40
2018-10-19T13:44:56.381Z,1.67
2018-10-19T13:47:24.985Z,1.67
2018-10-19T13:49:53.872Z,1.73
2018-10-19T13:52:22.613Z,1.70
2018-10-19T13:54:51.393Z,1.80
2018-10-19T13:57:20.084Z,1.60
2018-10-19T13:59:48.828Z,1.60
2018-10-19T14:02:18.140Z,1.60
2018-10-19T14:04:46.748Z,1.80
2018-10-19T14:07:15.570Z,1.60
2018-10-19T14:09:44.196Z,1.87
2018-10-19T14:12:12.816Z,1.80
2018-10-19T14:14:41.347Z,1.47
2018-10-19T14:17:10.122Z,1.60
2018-10-19T14:19:38.752Z,1.50
2018-10-19T14:22:07.356Z,1.40
2018-10-19T14:24:36.007Z,1.70
2018-10-19T14:27:04.982Z,1.70
2018-10-19T14:29:33.653Z,1.80
2018-10-19T14:32:02.449Z,1.43
2018-10-19T14:34:31.080Z,1.60
2018-10-19T14:36:59.756Z,1.53
2018-10-19T14:39:28.536Z,1.80
2018-10-19T14:41:57.252Z,2.20
2018-10-19T14:44:25.970Z,1.83
2018-10-19T14:46:54.574Z,1.70
2018-10-19T14:49:23.382Z,1.40
2018-10-19T14:51:52.084Z,1.40
2018-10-19T14:54:20.830Z,1.60
2018-10-19T14:56:49.525Z,1.70
2018-10-19T14:59:18.450Z,1.70
2018-10-19T15:01:47.126Z,1.77
2018-10-19T15:04:15.905Z,1.50
2018-10-19T15:06:44.718Z,1.43
2018-10-19T15:09:13.509Z,1.40
2018-10-19T15:11:42.705Z,1.60
2018-10-19T15:14:11.692Z,1.63
2018-10-19T15:16:40.719Z,1.40
2018-10-19T15:19:09.485Z,1.57
2018-10-19T15:21:38.121Z,1.60
2018-10-19T15:24:06.906Z,1.43
2018-10-19T15:26:35.504Z,1.50
2018-10-19T15:29:04.404Z,1.70
2018-10-19T15:31:33.918Z,1.67
2018-10-19T15:34:04.235Z,1.73
2018-10-19T15:36:33.545Z,1.80
2018-10-19T15:39:02.798Z,1.70
2018-10-19T15:41:31.515Z,1.30
2018-10-19T15:44:00.250Z,1.70
2018-10-19T15:46:28.956Z,1.37
2018-10-19T15:48:57.648Z,1.47
2018-10-19T15:51:26.337Z,1.47
2018-10-19T15:53:55.062Z,1.77
2018-10-19T15:56:23.712Z,1.63
2018-10-19T15:58:52.396Z,1.87
2018-10-19T16:01:21.008Z,1.90
2018-10-19T16:03:49.893Z,1.80
2018-10-19T16:06:18.660Z,2.00
2018-10-19T16:08:47.443Z,2.20
2018-10-19T16:11:16.173Z,2.00
2018-10-19T16:13:45.060Z,2.13
2018-10-19T16:16:13.843Z,2.13
2018-10-19T16:18:42.451Z,1.70
2018-10-19T16:21:11.455Z,1.90
2018-10-19T16:23:40.160Z,1.87
2018-10-19T16:26:08.814Z,2.00
2018-10-19T16:28:37.452Z,2.57
2018-10-19T16:31:06.126Z,2.40
2018-10-19T16:33:34.823Z,2.50
2018-10-19T16:36:05.991Z,2.40
2018-10-19T16:38:34.697Z,2.43
2018-10-19T16:41:03.930Z,2.37
2018-10-19T16:43:32.589Z,2.27
2018-10-19T16:46:02.654Z,2.20
2018-10-19T16:48:31.326Z,2.33
2018-10-19T16:50:59.926Z,2.70
2018-10-19T16:53:29.524Z,3.20
2018-10-19T16:55:58.175Z,3.53
2018-10-19T16:58:27.310Z,3.60
2018-10-19T17:00:55.992Z,3.70
2018-10-19T17:03:24.716Z,3.80
2018-10-19T17:05:53.477Z,3.93
2018-10-19T17:08:22.726Z,3.63
2018-10-19T17:10:51.440Z,3.53
2018-10-19T17:13:20.388Z,3.63
2018-10-19T17:15:49.989Z,3.43
2018-10-19T17:18:19.151Z,3.47
2018-10-19T17:20:48.516Z,3.60
2018-10-19T17:23:17.303Z,3.50
2018-10-19T17:25:46.812Z,3.27
2018-10-19T17:28:15.594Z,3.27
2018-10-19T17:30:44.152Z,2.90
2018-10-19T17:33:13.013Z,3.33
2018-10-19T17:35:42.579Z,3.13
2018-10-19T17:38:11.370Z,2.83
2018-10-19T17:40:40.070Z,3.03
2018-10-19T17:43:09.245Z,3.00
2018-10-19T17:45:38.811Z,3.50
2018-10-19T17:48:14.309Z,3.47
2018-10-19T17:50:42.920Z,3.87
2018-10-19T17:53:11.583Z,4.00
2018-10-19T17:55:40.314Z,3.77
2018-10-19T17:58:09.086Z,3.37
2018-10-19T18:00:37.928Z,3.60
2018-10-19T18:03:06.701Z,3.60
2018-10-19T18:05:35.977Z,3.83
2018-10-19T18:08:04.755Z,3.60
2018-10-19T18:10:33.678Z,3.70
2018-10-19T18:13:03.078Z,4.27
2018-10-19T18:15:32.259Z,3.83
2018-10-19T18:18:01.039Z,4.10
2018-10-19T18:20:30.309Z,3.97
2018-10-19T18:22:59.353Z,3.97
2018-10-19T18:25:28.100Z,4.27
2018-10-19T18:27:57.026Z,3.83
2018-10-19T18:30:26.203Z,4.23
2018-10-19T18:32:54.965Z,3.67
2018-10-19T18:35:23.701Z,3.70
2018-10-19T18:37:53.423Z,4.17
2018-10-19T18:40:22.108Z,3.73
2018-10-19T18:42:50.821Z,4.10
2018-10-19T18:45:19.724Z,4.33
2018-10-19T18:47:48.661Z,4.63
2018-10-19T18:50:18.466Z,4.57
2018-10-19T18:52:47.195Z,4.20
2018-10-19T18:55:15.987Z,5.00
2018-10-19T18:57:44.701Z,3.93
2018-10-19T19:00:13.828Z,4.17
2018-10-19T19:02:42.583Z,4.23
2018-10-19T19:05:11.547Z,4.27
2018-10-19T19:07:40.422Z,4.23
2018-10-19T19:10:13.516Z,4.07
2018-10-19T19:12:43.079Z,4.50
2018-10-19T19:15:12.356Z,3.97
2018-10-19T19:17:41.337Z,4.40
2018-10-19T19:20:15.768Z,4.07
2018-10-19T19:22:44.861Z,4.03
2018-10-19T19:25:20.993Z,4.13
2018-10-19T19:27:49.788Z,3.90
2018-10-19T19:30:18.527Z,3.90
2018-10-19T19:32:52.441Z,3.77
2018-10-19T19:35:21.152Z,3.97
2018-10-19T19:37:49.865Z,4.30
2018-10-19T19:40:18.962Z,4.10
2018-10-19T19:42:56.000Z,4.13
2018-10-19T19:45:24.780Z,4.07
2018-10-19T19:47:58.776Z,4.00
2018-10-19T19:50:27.415Z,4.00
2018-10-19T19:52:56.167Z,3.03
2018-10-19T19:55:25.601Z,3.80
2018-10-19T19:57:54.372Z,3.53
2018-10-19T20:00:23.731Z,3.97
2018-10-19T20:02:52.811Z,3.57
2018-10-19T20:05:21.698Z,3.93
2018-10-19T20:07:50.452Z,3.43
2018-10-19T20:10:19.092Z,3.47
2018-10-19T20:12:47.837Z,3.60
2018-10-19T20:15:16.525Z,4.00
2018-10-19T20:17:45.475Z,3.87
2018-10-19T20:20:14.100Z,4.13
2018-10-19T20:22:43.291Z,3.87
2018-10-19T20:25:13.417Z,3.73
2018-10-19T20:27:42.253Z,3.70
2018-10-19T20:30:12.798Z,3.90
2018-10-19T20:32:41.613Z,3.87
2018-10-19T20:35:11.610Z,3.97
2018-10-19T20:37:40.313Z,3.80
2018-10-19T20:40:09.115Z,3.97
2018-10-19T20:42:37.793Z,5.07
2018-10-19T20:45:07.354Z,4.53
2018-10-19T20:47:35.972Z,5.30
2018-10-19T20:50:04.635Z,4.47
2018-10-19T20:52:33.250Z,4.40
2018-10-19T20:55:01.920Z,4.80
2018-10-19T20:57:30.635Z,4.63
2018-10-19T20:59:59.532Z,4.50
2018-10-19T21:02:28.311Z,4.23
2018-10-19T21:04:57.072Z,4.47
2018-10-19T21:07:25.951Z,4.80
2018-10-19T21:09:54.791Z,4.23
2018-10-19T21:12:23.628Z,4.53
2018-10-19T21:14:52.321Z,4.37
2018-10-19T21:17:21.215Z,4.37
2018-10-19T21:19:49.895Z,4.57
2018-10-19T21:22:18.459Z,4.03
2018-10-19T21:24:48.023Z,4.73
2018-10-19T21:27:16.670Z,4.40
2018-10-19T21:29:46.379Z,4.83
2018-10-19T21:32:15.383Z,4.40
2018-10-19T21:34:44.095Z,4.80
2018-10-19T21:37:12.780Z,4.23
2018-10-19T21:39:41.418Z,4.30
2018-10-19T21:42:10.078Z,4.33
2018-10-19T21:44:38.754Z,4.60
2018-10-19T21:47:07.594Z,4.47
2018-10-19T21:49:36.294Z,4.70
2018-10-19T21:52:05.105Z,4.67
2018-10-19T21:54:33.823Z,4.70
2018-10-19T21:57:03.462Z,4.80
2018-10-19T21:59:32.214Z,4.63
2018-10-19T22:02:03.057Z,5.03
2018-10-19T22:04:31.843Z,5.10
2018-10-19T22:07:00.525Z,4.10
2018-10-19T22:09:29.650Z,4.30
2018-10-19T22:11:58.682Z,4.80
2018-10-19T22:14:27.841Z,4.47
2018-10-19T22:16:56.851Z,4.47
2018-10-19T22:19:25.602Z,4.90
2018-10-19T22:21:54.264Z,4.70
2018-10-19T22:24:23.189Z,5.17
2018-10-19T22:26:52.007Z,4.80
2018-10-19T22:29:20.789Z,4.47
2018-10-19T22:31:49.581Z,5.63
2018-10-19T22:34:18.509Z,5.37
2018-10-19T22:36:47.253Z,4.93
2018-10-19T22:39:16.567Z,5.23
2018-10-19T22:41:45.262Z,5.17
2018-10-19T22:44:14.013Z,5.03
2018-10-19T22:46:43.690Z,5.90
2018-10-19T22:49:12.587Z,5.77
2018-10-19T22:51:41.442Z,5.20
2018-10-19T22:54:10.306Z,4.80
2018-10-19T22:56:39.055Z,4.90
2018-10-19T22:59:07.771Z,4.43
2018-10-19T23:01:36.482Z,5.23
2018-10-19T23:04:05.669Z,5.33
2018-10-19T23:06:34.453Z,5.10
2018-10-19T23:09:03.471Z,5.20
2018-10-19T23:11:33.277Z,4.60
2018-10-19T23:14:02.059Z,5.40
2018-10-19T23:16:32.024Z,5.13
2018-10-19T23:19:01.091Z,5.20
2018-10-19T23:21:29.784Z,4.93
2018-10-19T23:23:58.761Z,5.53
2018-10-19T23:26:27.371Z,5.23
2018-10-19T23:28:56.075Z,5.50
2018-10-19T23:31:25.116Z,5.63
2018-10-19T23:33:53.722Z,5.80
2018-10-19T23:36:22.393Z,5.50
2018-10-19T23:38:51.068Z,5.33
2018-10-19T23:41:19.765Z,5.00
2018-10-19T23:43:48.412Z,5.13
2018-10-19T23:46:16.963Z,5.03
2018-10-19T23:48:45.647Z,5.03
2018-10-19T23:51:14.392Z,4.83
2018-10-19T23:53:43.053Z,5.23
2018-10-19T23:56:11.680Z,5.13
2018-10-19T23:58:40.345Z,5.30
